createdAt,value
2019-04-21T00:00:45.629Z,102459.16
2019-04-21T00:03:21.704Z,102459.16
2019-04-21T00:06:04.533Z,102454.03
2019-04-21T00:08:48.519Z,102452.38
2019-04-21T00:11:09.672Z,102453.59
2019-04-21T00:13:35.505Z,102443.95
2019-04-21T00:15:57.373Z,102439.56
2019-04-21T00:18:51.922Z,102438.79
2019-04-21T00:21:24.374Z,102434.77
2019-04-21T00:24:01.823Z,102431.66
2019-04-21T00:26:35.182Z,102431.66
2019-04-21T00:29:09.165Z,102410.88
2019-04-21T00:31:33.654Z,102419.41
2019-04-21T00:33:50.208Z,102415.75
2019-04-21T00:36:25.965Z,102402.05
2019-04-21T00:39:20.956Z,102412.76
2019-04-21T00:41:45.029Z,102404.83
2019-04-21T00:44:04.536Z,102405.52
2019-04-21T00:46:42.781Z,102407.11
2019-04-21T00:49:10.900Z,102396.78
2019-04-21T00:52:11.345Z,102402.89
2019-04-21T00:54:39.881Z,102402.89
2019-04-21T00:57:00.719Z,102396.47
2019-04-21T00:59:28.615Z,102397.02
2019-04-21T01:01:53.881Z,102393.56
2019-04-21T01:04:33.842Z,102390.74
2019-04-21T01:07:02.868Z,102390.74
2019-04-21T01:09:27.637Z,102388.59
2019-04-21T01:12:03.634Z,102385.20
2019-04-21T01:14:40.725Z,102378.39
2019-04-21T01:17:11.127Z,102376.39
2019-04-21T01:19:33.657Z,102376.39
2019-04-21T01:21:45.618Z,102371.35
2019-04-21T01:24:21.706Z,102365.80
2019-04-21T01:26:59.610Z,102365.80
2019-04-21T01:29:44.168Z,102365.80
2019-04-21T01:32:12.888Z,102362.27
2019-04-21T01:34:43.024Z,102364.67
2019-04-21T01:37:04.601Z,102364.67
2019-04-21T01:39:48.633Z,102357.33
2019-04-21T01:42:15.779Z,102355.23
2019-04-21T01:44:46.139Z,102356.22
2019-04-21T01:47:13.968Z,102355.18
2019-04-21T01:49:36.847Z,102356.16
2019-04-21T01:52:24.605Z,102356.16
2019-04-21T01:55:12.382Z,102359.49
2019-04-21T01:57:57.592Z,102356.81
2019-04-21T02:00:46.962Z,102345.58
2019-04-21T02:03:34.716Z,102346.22
2019-04-21T02:06:02.726Z,102337.95
2019-04-21T02:08:24.268Z,102335.30
2019-04-21T02:10:54.934Z,102335.30
2019-04-21T02:13:18.912Z,102334.89
2019-04-21T02:16:02.274Z,102329.17
2019-04-21T02:18:24.314Z,102325.86
2019-04-21T02:20:45.647Z,102320.59
2019-04-21T02:23:35.049Z,102314.38
2019-04-21T02:26:02.094Z,102309.20
2019-04-21T02:28:40.471Z,102311.05
2019-04-21T02:33:50.317Z,102302.69
2019-04-21T02:36:22.765Z,102297.23
2019-04-21T02:38:52.969Z,102297.23
2019-04-21T02:41:05.785Z,102296.88
2019-04-21T02:43:44.805Z,102296.88
2019-04-21T02:46:25.674Z,102280.38
2019-04-21T02:51:19.377Z,102271.72
2019-04-21T02:54:32.229Z,102272.73
2019-04-21T03:04:38.432Z,102260.41
2019-04-21T03:07:13.256Z,102260.41
2019-04-21T03:09:35.766Z,102260.64
2019-04-21T03:12:23.597Z,102264.13
2019-04-21T03:17:18.279Z,102247.01
2019-04-21T03:22:21.007Z,102239.05
2019-04-21T03:27:31.094Z,102239.60
2019-04-21T03:29:54.389Z,102235.16
2019-04-21T03:33:06.090Z,102231.70
2019-04-21T03:40:06.867Z,102224.28
2019-04-21T03:42:34.489Z,102222.17
2019-04-21T03:44:57.393Z,102222.17
2019-04-21T03:47:30.885Z,102217.33
2019-04-21T03:50:05.244Z,102211.77
2019-04-21T03:52:31.876Z,102214.95
2019-04-21T04:04:03.707Z,102215.58
2019-04-21T04:06:24.589Z,102206.09
2019-04-21T04:09:19.009Z,102205.98
2019-04-21T04:11:54.733Z,102206.67
2019-04-21T04:16:59.336Z,102204.30
2019-04-21T04:19:18.810Z,102206.51
2019-04-21T04:21:57.526Z,102204.39
2019-04-21T04:27:02.502Z,102202.29
2019-04-21T04:29:20.489Z,102204.89
2019-04-21T04:37:05.543Z,102187.98
2019-04-21T04:39:48.816Z,102181.69
2019-04-21T04:42:41.323Z,102177.02
2019-04-21T05:05:07.362Z,102167.33
2019-04-21T05:12:29.445Z,102175.33
2019-04-21T05:15:04.144Z,102166.02
2019-04-21T05:17:38.344Z,102164.96
2019-04-21T05:20:08.609Z,102164.48
2019-04-21T05:22:33.470Z,102164.48
2019-04-21T05:24:55.396Z,102166.42
2019-04-21T05:27:46.934Z,102169.58
2019-04-21T05:33:18.747Z,102163.64
2019-04-21T05:36:14.274Z,102170.73
2019-04-21T05:39:06.487Z,102172.00
2019-04-21T05:41:26.589Z,102168.68
2019-04-21T05:44:13.224Z,102161.62
2019-04-21T05:46:42.186Z,102167.77
2019-04-21T05:49:20.594Z,102165.35
2019-04-21T05:51:57.471Z,102170.47
2019-04-21T05:54:40.825Z,102169.44
2019-04-21T05:57:01.096Z,102174.53
2019-04-21T05:59:56.038Z,102174.95
2019-04-21T06:07:40.744Z,102162.94
2019-04-21T06:10:12.330Z,102163.24
2019-04-21T06:12:59.613Z,102163.24
2019-04-21T06:15:30.418Z,102161.22
2019-04-21T06:17:57.939Z,102161.84
2019-04-21T06:20:35.483Z,102161.84
2019-04-21T06:23:20.373Z,102161.67
2019-04-21T06:26:52.104Z,102152.76
2019-04-21T06:35:48.475Z,102151.22
2019-04-21T06:38:13.823Z,102149.34
2019-04-21T06:40:42.281Z,102142.50
2019-04-21T06:43:23.957Z,102145.77
2019-04-21T06:45:51.092Z,102152.18
2019-04-21T06:48:18.547Z,102146.05
2019-04-21T06:50:45.822Z,102151.27
2019-04-21T06:53:22.121Z,102151.27
2019-04-21T06:55:44.134Z,102149.39
2019-04-21T06:58:10.406Z,102149.39
2019-04-21T07:00:40.905Z,102156.44
2019-04-21T07:03:20.750Z,102148.27
2019-04-21T07:05:58.979Z,102144.00
2019-04-21T07:08:28.795Z,102144.00
2019-04-21T07:10:53.272Z,102147.05
2019-04-21T07:13:22.016Z,102140.91
2019-04-21T07:15:49.906Z,102137.06
2019-04-21T07:18:32.647Z,102137.06
2019-04-21T07:20:56.479Z,102136.70
2019-04-21T07:23:27.928Z,102129.92
2019-04-21T07:25:58.232Z,102137.30
2019-04-21T07:28:25.516Z,102135.04
2019-04-21T07:31:03.615Z,102128.03
2019-04-21T07:33:50.666Z,102128.03
2019-04-21T07:36:03.544Z,102135.48
2019-04-21T07:38:35.544Z,102135.48
2019-04-21T07:40:58.775Z,102129.25
2019-04-21T07:43:30.056Z,102125.83
2019-04-21T07:45:58.145Z,102122.92
2019-04-21T07:48:49.755Z,102120.64
2019-04-21T07:51:43.748Z,102114.78
2019-04-21T07:54:18.682Z,102114.78
2019-04-21T07:56:33.212Z,102113.88
2019-04-21T07:59:34.215Z,102113.88
2019-04-21T08:01:55.069Z,102111.81
2019-04-21T08:04:42.454Z,102108.13
2019-04-21T08:06:55.457Z,102106.00
2019-04-21T08:09:33.022Z,102105.09
2019-04-21T08:12:00.125Z,102097.55
2019-04-21T08:14:35.502Z,102097.55
2019-04-21T08:17:04.908Z,102101.53
2019-04-21T08:19:31.018Z,102094.09
2019-04-21T08:22:11.010Z,102098.69
2019-04-21T08:24:34.723Z,102093.02
2019-04-21T08:27:10.887Z,102088.73
2019-04-21T08:29:39.483Z,102088.73
2019-04-21T08:32:18.098Z,102084.73
2019-04-21T08:34:42.928Z,102084.73
2019-04-21T08:37:15.118Z,102079.54
2019-04-21T08:39:49.629Z,102078.29
2019-04-21T08:42:15.544Z,102073.81
2019-04-21T08:44:47.962Z,102073.81
2019-04-21T08:47:19.078Z,102069.52
2019-04-21T08:49:55.369Z,102062.95
2019-04-21T08:52:39.399Z,102064.55
2019-04-21T08:54:57.025Z,102060.85
2019-04-21T08:57:46.408Z,102054.48
2019-04-21T09:00:16.274Z,102059.70
2019-04-21T09:03:06.698Z,102059.70
2019-04-21T09:05:40.997Z,102048.53
2019-04-21T09:08:13.751Z,102044.98
2019-04-21T09:10:44.424Z,102045.03
2019-04-21T09:13:04.584Z,102041.30
2019-04-21T09:15:39.646Z,102041.30
2019-04-21T09:18:07.487Z,102040.98
2019-04-21T09:20:46.131Z,102028.00
2019-04-21T09:23:18.141Z,102028.00
2019-04-21T09:25:46.555Z,102020.77
2019-04-21T09:28:10.891Z,102011.98
2019-04-21T09:30:26.353Z,102012.55
2019-04-21T09:32:58.210Z,102009.33
2019-04-21T09:35:27.082Z,102004.16
2019-04-21T09:38:03.014Z,101990.33
2019-04-21T09:40:33.684Z,101992.49
2019-04-21T09:43:03.260Z,101991.62
2019-04-21T09:45:28.922Z,101990.98
2019-04-21T09:48:04.471Z,101990.55
2019-04-21T09:50:30.103Z,101990.55
2019-04-21T09:53:10.461Z,101980.49
2019-04-21T09:55:36.448Z,101973.80
2019-04-21T09:58:10.153Z,101965.79
2019-04-21T10:00:43.550Z,101971.62
2019-04-21T10:03:08.407Z,101956.95
2019-04-21T10:05:33.859Z,101965.73
2019-04-21T10:08:03.669Z,101958.36
2019-04-21T10:10:34.116Z,101958.36
2019-04-21T10:13:05.067Z,101951.93
2019-04-21T10:15:35.424Z,101950.61
2019-04-21T10:18:10.794Z,101945.05
2019-04-21T10:20:40.745Z,101939.39
2019-04-21T10:23:11.400Z,101934.02
2019-04-21T10:25:40.999Z,101937.45
2019-04-21T10:28:12.784Z,101935.20
2019-04-21T10:30:42.631Z,101926.93
2019-04-21T10:33:12.942Z,101927.88
2019-04-21T10:35:43.375Z,101921.13
2019-04-21T10:38:22.707Z,101918.28
2019-04-21T10:40:43.648Z,101917.20
2019-04-21T10:46:12.919Z,101908.20
2019-04-21T10:48:43.178Z,101908.20
2019-04-21T10:51:13.059Z,101890.00
2019-04-21T10:53:43.475Z,101890.00
2019-04-21T10:56:21.863Z,101888.95
2019-04-21T10:58:46.408Z,101885.63
2019-04-21T11:01:23.161Z,101887.38
2019-04-21T11:04:27.830Z,101887.38
2019-04-21T11:09:31.790Z,101875.31
2019-04-21T11:12:02.064Z,101879.80
2019-04-21T11:14:31.524Z,101867.06
2019-04-21T11:17:00.811Z,101862.38
2019-04-21T11:19:30.697Z,101858.69
2019-04-21T11:22:00.859Z,101858.84
2019-04-21T11:24:31.376Z,101845.40
2019-04-21T11:27:01.847Z,101844.64
2019-04-21T11:29:31.096Z,101846.81
2019-04-21T11:32:00.977Z,101847.84
2019-04-21T11:34:31.455Z,101847.84
2019-04-21T11:37:01.876Z,101841.15
2019-04-21T11:39:44.525Z,101841.15
2019-04-21T11:42:12.079Z,101847.33
2019-04-21T11:44:41.722Z,101847.33
2019-04-21T11:47:18.585Z,101834.75
2019-04-21T11:49:47.689Z,101829.28
2019-04-21T11:52:18.866Z,101834.33
2019-04-21T11:54:48.973Z,101836.42
2019-04-21T11:57:24.610Z,101836.42
2019-04-21T11:59:49.242Z,101821.77
2019-04-21T12:02:19.424Z,101817.41
2019-04-21T12:04:49.544Z,101817.41
2019-04-21T12:07:19.950Z,101827.72
2019-04-21T12:09:48.996Z,101817.42
2019-04-21T12:12:19.113Z,101817.42
2019-04-21T12:14:48.259Z,101824.50
2019-04-21T12:17:18.345Z,101816.61
2019-04-21T12:19:48.559Z,101804.47
2019-04-21T12:22:22.187Z,101806.73
2019-04-21T12:24:49.075Z,101800.88
2019-04-21T12:27:18.292Z,101800.88
2019-04-21T12:29:48.000Z,101789.08
2019-04-21T12:32:36.457Z,101788.12
2019-04-21T12:35:06.198Z,101778.59
2019-04-21T12:37:35.433Z,101779.06
2019-04-21T12:40:06.357Z,101779.44
2019-04-21T12:42:38.754Z,101774.05
2019-04-21T12:45:07.569Z,101768.11
2019-04-21T12:47:38.009Z,101766.95
2019-04-21T12:50:08.707Z,101766.95
2019-04-21T12:52:37.955Z,101754.71
2019-04-21T12:55:07.537Z,101745.94
2019-04-21T12:57:37.234Z,101745.94
2019-04-21T13:00:11.155Z,101741.87
2019-04-21T13:02:40.451Z,101741.87
2019-04-21T13:05:09.912Z,101737.47
2019-04-21T13:07:41.492Z,101727.66
2019-04-21T13:10:12.591Z,101726.77
2019-04-21T13:12:41.873Z,101726.77
2019-04-21T13:15:11.522Z,101716.75
2019-04-21T13:17:44.018Z,101713.89
2019-04-21T13:20:12.057Z,101706.79
2019-04-21T13:22:41.959Z,101700.64
2019-04-21T13:25:11.840Z,101700.64
2019-04-21T13:27:43.019Z,101691.55
2019-04-21T13:30:14.890Z,101691.55
2019-04-21T13:32:47.056Z,101686.02
2019-04-21T13:35:21.232Z,101684.81
2019-04-21T13:37:52.301Z,101676.30
2019-04-21T13:41:17.756Z,101675.16
2019-04-21T13:43:33.059Z,101676.02
2019-04-21T13:46:03.691Z,101675.25
2019-04-21T13:48:34.612Z,101675.25
2019-04-21T13:51:04.993Z,101666.85
2019-04-21T13:53:34.940Z,101666.85
2019-04-21T13:56:06.683Z,101672.84
2019-04-21T13:58:36.068Z,101657.11
2019-04-21T14:02:11.273Z,101657.11
2019-04-21T14:04:41.203Z,101651.64
2019-04-21T14:07:10.551Z,101636.53
2019-04-21T14:09:47.690Z,101639.08
2019-04-21T14:12:11.716Z,101635.16
2019-04-21T14:14:42.378Z,101635.16
2019-04-21T14:17:12.780Z,101616.44
2019-04-21T14:19:41.965Z,101619.05
2019-04-21T14:22:13.811Z,101615.84
2019-04-21T14:24:43.754Z,101615.84
2019-04-21T14:27:14.248Z,101608.04
2019-04-21T14:29:43.893Z,101608.59
2019-04-21T14:32:16.117Z,101613.06
2019-04-21T14:37:20.420Z,101600.69
2019-04-21T14:39:57.811Z,101594.28
2019-04-21T14:42:20.554Z,101600.64
2019-04-21T14:44:51.104Z,101584.12
2019-04-21T14:47:36.323Z,101584.12
2019-04-21T14:50:26.247Z,101585.53
2019-04-21T14:53:29.821Z,101586.25
2019-04-21T14:55:59.504Z,101588.03
2019-04-21T14:58:28.718Z,101584.35
2019-04-21T15:01:04.186Z,101574.19
2019-04-21T15:03:34.252Z,101570.13
2019-04-21T15:06:07.502Z,101566.38
2019-04-21T15:08:37.404Z,101562.64
2019-04-21T15:11:07.100Z,101562.64
2019-04-21T15:13:37.764Z,101555.30
2019-04-21T15:16:08.930Z,101559.08
2019-04-21T15:18:39.025Z,101546.49
2019-04-21T15:21:08.388Z,101552.25
2019-04-21T15:23:38.218Z,101548.22
2019-04-21T15:26:08.310Z,101543.05
2019-04-21T15:28:39.104Z,101536.99
2019-04-21T15:31:12.795Z,101540.44
2019-04-21T15:33:41.212Z,101528.41
2019-04-21T15:36:11.237Z,101529.64
2019-04-21T15:38:40.523Z,101527.48
2019-04-21T15:41:12.593Z,101530.14
2019-04-21T15:43:42.572Z,101529.42
2019-04-21T15:46:13.056Z,101528.37
2019-04-21T15:48:42.634Z,101524.20
2019-04-21T15:51:14.068Z,101524.20
2019-04-21T15:53:43.895Z,101518.89
2019-04-21T15:56:26.844Z,101518.89
2019-04-21T15:59:18.839Z,101509.43
2019-04-21T16:02:08.390Z,101500.63
2019-04-21T16:04:38.940Z,101507.13
2019-04-21T16:07:08.492Z,101508.28
2019-04-21T16:09:38.063Z,101500.70
2019-04-21T16:12:09.691Z,101500.70
2019-04-21T16:14:41.008Z,101504.12
2019-04-21T16:17:12.400Z,101494.07
2019-04-21T16:19:43.901Z,101494.07
2019-04-21T16:22:16.827Z,101486.66
2019-04-21T16:24:54.626Z,101477.87
2019-04-21T16:27:27.563Z,101480.84
2019-04-21T16:30:03.901Z,101473.75
2019-04-21T16:32:36.742Z,101469.65
2019-04-21T16:35:10.655Z,101466.17
2019-04-21T16:37:41.623Z,101460.74
2019-04-21T16:40:13.764Z,101464.43
2019-04-21T16:42:47.975Z,101461.63
2019-04-21T16:45:21.008Z,101465.19
2019-04-21T16:47:53.748Z,101454.61
2019-04-21T16:50:26.081Z,101448.56
2019-04-21T16:53:10.266Z,101452.11
2019-04-21T16:55:48.972Z,101452.11
2019-04-21T16:58:28.901Z,101447.67
2019-04-21T17:01:08.302Z,101455.76
2019-04-21T17:03:34.603Z,101455.76
2019-04-21T17:06:11.203Z,101448.71
2019-04-21T17:08:42.929Z,101448.88
2019-04-21T17:11:20.666Z,101448.73
2019-04-21T17:13:47.280Z,101439.98
2019-04-21T17:16:42.093Z,101446.64
2019-04-21T17:19:00.484Z,101448.60
2019-04-21T17:21:21.786Z,101442.18
2019-04-21T17:23:52.461Z,101440.45
2019-04-21T17:26:23.770Z,101440.45
2019-04-21T17:28:54.310Z,101440.81
2019-04-21T17:31:26.675Z,101437.45
2019-04-21T17:34:01.980Z,101436.78
2019-04-21T17:36:29.086Z,101436.80
2019-04-21T17:39:00.229Z,101440.34
2019-04-21T17:41:37.656Z,101435.48
2019-04-21T17:44:02.554Z,101430.46
2019-04-21T17:46:40.812Z,101430.87
2019-04-21T17:49:03.365Z,101432.11
2019-04-21T17:51:53.672Z,101432.45
2019-04-21T17:54:33.833Z,101424.94
2019-04-21T17:57:33.473Z,101432.37
2019-04-21T17:59:58.864Z,101428.17
2019-04-21T18:02:17.546Z,101427.88
2019-04-21T18:04:51.028Z,101425.77
2019-04-21T18:07:21.575Z,101425.16
2019-04-21T18:10:03.306Z,101427.24
2019-04-21T18:12:32.287Z,101423.77
2019-04-21T18:14:53.035Z,101423.77
2019-04-21T18:17:16.233Z,101416.05
2019-04-21T18:19:49.181Z,101414.97
2019-04-21T18:22:40.293Z,101415.14
2019-04-21T18:25:15.054Z,101420.82
2019-04-21T18:27:42.727Z,101421.65
2019-04-21T18:30:40.213Z,101415.98
2019-04-21T18:35:59.729Z,101416.52
2019-04-21T18:39:13.967Z,101417.30
2019-04-21T18:41:23.678Z,101410.99
2019-04-21T18:44:28.137Z,101417.69
2019-04-21T18:47:06.933Z,101420.23
2019-04-21T18:49:24.861Z,101430.45
2019-04-21T18:52:06.839Z,101423.86
2019-04-21T18:54:47.311Z,101424.20
2019-04-21T18:57:12.922Z,101433.20
2019-04-21T18:59:36.155Z,101432.30
2019-04-21T19:02:09.598Z,101432.88
2019-04-21T19:04:37.590Z,101429.02
2019-04-21T19:07:20.010Z,101423.19
2019-04-21T19:12:36.652Z,101424.95
2019-04-21T19:14:55.094Z,101418.34
2019-04-21T19:17:42.639Z,101418.98
2019-04-21T19:20:07.693Z,101425.36
2019-04-21T19:22:34.697Z,101421.81
2019-04-21T19:25:17.043Z,101426.00
2019-04-21T19:27:33.733Z,101428.60
2019-04-21T19:30:13.565Z,101426.47
2019-04-21T19:32:39.438Z,101424.15
2019-04-21T19:34:48.977Z,101419.08
2019-04-21T19:37:23.900Z,101417.78
2019-04-21T19:40:01.819Z,101423.20
2019-04-21T19:42:34.595Z,101426.48
2019-04-21T19:45:06.084Z,101416.02
2019-04-21T19:47:45.066Z,101416.13
2019-04-21T19:50:11.219Z,101422.14
2019-04-21T19:52:36.104Z,101410.98
2019-04-21T19:54:55.002Z,101408.48
2019-04-21T19:57:25.238Z,101406.19
2019-04-21T19:59:58.549Z,101401.02
2019-04-21T20:02:26.675Z,101404.91
2019-04-21T20:05:03.097Z,101404.91
2019-04-21T20:07:46.516Z,101407.70
2019-04-21T20:10:23.260Z,101402.02
2019-04-21T20:12:45.280Z,101402.02
2019-04-21T20:15:25.558Z,101403.52
2019-04-21T20:17:47.847Z,101398.11
2019-04-21T20:20:03.748Z,101398.11
2019-04-21T20:22:38.620Z,101390.66
2019-04-21T20:25:11.601Z,101393.91
2019-04-21T20:27:46.900Z,101389.61
2019-04-21T20:30:25.998Z,101389.58
2019-04-21T20:32:55.971Z,101398.24
2019-04-21T20:35:38.392Z,101396.58
2019-04-21T20:37:57.727Z,101396.37
2019-04-21T20:40:27.782Z,101396.37
2019-04-21T20:43:03.468Z,101392.41
2019-04-21T20:45:55.771Z,101386.72
2019-04-21T20:47:53.911Z,101385.77
2019-04-21T20:50:35.365Z,101389.70
2019-04-21T20:53:11.340Z,101380.03
2019-04-21T20:55:35.449Z,101388.02
2019-04-21T20:58:05.707Z,101381.25
2019-04-21T21:00:54.620Z,101384.59
2019-04-21T21:03:12.121Z,101381.07
2019-04-21T21:05:39.539Z,101384.20
2019-04-21T21:08:17.991Z,101384.20
2019-04-21T21:10:38.576Z,101374.48
2019-04-21T21:16:01.219Z,101367.12
2019-04-21T21:20:49.805Z,101363.47
2019-04-21T21:23:14.454Z,101360.28
2019-04-21T21:25:58.990Z,101355.22
2019-04-21T21:28:22.615Z,101364.75
2019-04-21T21:30:52.924Z,101363.34
2019-04-21T21:33:22.171Z,101362.69
2019-04-21T21:35:56.532Z,101356.34
2019-04-21T21:38:31.209Z,101356.34
2019-04-21T21:40:55.313Z,101355.13
2019-04-21T21:43:19.454Z,101356.45
2019-04-21T21:45:50.287Z,101349.88
2019-04-21T21:48:36.668Z,101352.77
2019-04-21T21:50:56.693Z,101347.22
2019-04-21T21:53:21.529Z,101349.06
2019-04-21T21:55:48.674Z,101341.52
2019-04-21T21:58:25.310Z,101348.80
2019-04-21T22:00:58.450Z,101339.66
2019-04-21T22:03:31.762Z,101341.83
2019-04-21T22:06:02.197Z,101342.14
2019-04-21T22:08:28.270Z,101342.14
2019-04-21T22:10:57.520Z,101334.34
2019-04-21T22:13:36.005Z,101334.34
2019-04-21T22:16:04.842Z,101338.59
2019-04-21T22:18:43.614Z,101338.59
2019-04-21T22:21:14.222Z,101335.92
2019-04-21T22:23:43.856Z,101336.20
2019-04-21T22:26:03.202Z,101333.19
2019-04-21T22:28:33.669Z,101331.73
2019-04-21T22:31:08.154Z,101330.66
2019-04-21T22:33:44.308Z,101322.95
2019-04-21T22:36:18.523Z,101321.22
2019-04-21T22:38:50.948Z,101323.12
2019-04-21T22:41:19.241Z,101322.20
2019-04-21T22:43:43.896Z,101319.08
2019-04-21T22:46:12.343Z,101319.63
2019-04-21T22:48:40.970Z,101307.53
2019-04-21T22:51:20.425Z,101304.16
2019-04-21T22:53:46.514Z,101306.41
2019-04-21T22:56:18.493Z,101306.41
2019-04-21T22:58:46.106Z,101303.02
2019-04-21T23:01:20.102Z,101295.06
2019-04-21T23:03:49.239Z,101294.52
2019-04-21T23:06:22.058Z,101294.92
2019-04-21T23:08:49.469Z,101292.27
2019-04-21T23:11:37.456Z,101289.86
2019-04-21T23:14:05.110Z,101283.11
2019-04-21T23:16:35.723Z,101283.11
2019-04-21T23:19:20.040Z,101283.27
2019-04-21T23:21:53.726Z,101279.42
2019-04-21T23:24:31.644Z,101274.03
2019-04-21T23:26:50.744Z,101265.95
2019-04-21T23:29:38.763Z,101268.58
2019-04-21T23:31:58.161Z,101265.08
2019-04-21T23:34:13.383Z,101259.53
2019-04-21T23:36:48.227Z,101258.34
2019-04-21T23:39:17.025Z,101259.77
2019-04-21T23:41:47.880Z,101259.47
2019-04-21T23:44:15.166Z,101255.67
2019-04-21T23:46:45.824Z,101255.67
2019-04-21T23:49:27.169Z,101252.97
2019-04-21T23:51:54.647Z,101249.79
2019-04-21T23:54:17.465Z,101248.09
2019-04-21T23:56:47.812Z,101237.92
2019-04-21T23:59:18.059Z,101233.80
